Time;durP1;ratioP1;P1;durP2;ratioP2;P2;SDS_P1;SDS_P2;PMS_P1;PMS_P2;Temp;Humidity;BMP_temperature;BMP_pressure;BME280_temperature;BME280_humidity;BME280_pressure;Samples;Min_cycle;Max_cycle;Signal;HPM_P1;HPM_P2
2023/12/23 00:01:00;;;;;;;13.95;3.33;;;;;;;5.37;100.00;161971.56;5046505;28;20052;-56
2023/12/23 00:03:25;;;;;;;7.57;4.07;;;;;;;5.38;100.00;161972.88;5034859;28;20037;-56
2023/12/23 00:05:53;;;;;;;12.73;3.25;;;;;;;5.37;100.00;161971.56;5050668;28;20033;-56
2023/12/23 00:08:18;;;;;;;12.60;3.50;;;;;;;5.39;100.00;161976.97;5052806;28;20155;-56
2023/12/23 00:10:43;;;;;;;9.00;3.65;;;;;;;5.43;100.00;161985.00;5050939;28;20488;-56
2023/12/23 00:13:09;;;;;;;17.05;6.43;;;;;;;5.39;100.00;161976.97;5051924;28;20499;-56
2023/12/23 00:15:34;;;;;;;16.05;6.45;;;;;;;5.39;100.00;161976.97;5050546;28;20033;-56
2023/12/23 00:17:59;;;;;;;3.95;2.95;;;;;;;5.39;100.00;161975.59;5050815;28;20506;-56
2023/12/23 00:20:25;;;;;;;19.25;5.68;;;;;;;5.39;100.00;161976.97;5034069;28;20033;-56
2023/12/23 00:22:50;;;;;;;15.68;4.35;;;;;;;5.40;100.00;161979.59;5032134;28;20076;-56
2023/12/23 00:25:15;;;;;;;12.27;5.10;;;;;;;5.46;100.00;161993.09;5031000;28;20518;-56
2023/12/23 00:27:41;;;;;;;11.95;3.65;;;;;;;5.43;100.00;161985.00;5045153;28;20087;-56
2023/12/23 00:30:07;;;;;;;4.82;2.83;;;;;;;5.42;100.00;161982.31;5050299;28;20041;-56
2023/12/23 00:32:32;;;;;;;14.85;5.25;;;;;;;5.44;100.00;161987.69;5051807;28;20473;-56
2023/12/23 00:34:58;;;;;;;12.57;4.88;;;;;;;5.46;100.00;161994.41;5034845;28;20099;-56
2023/12/23 00:37:23;;;;;;;11.57;4.38;;;;;;;5.52;100.00;162009.22;5031073;28;20056;-56
2023/12/23 00:39:48;;;;;;;12.77;6.05;;;;;;;5.50;100.00;162003.81;5029652;28;20061;-56
2023/12/23 00:42:14;;;;;;;20.58;6.05;;;;;;;5.49;100.00;162002.50;5032209;28;20033;-56
2023/12/23 00:44:39;;;;;;;11.68;2.92;;;;;;;5.50;100.00;162003.81;5029901;28;20531;-56
2023/12/23 00:47:05;;;;;;;18.17;6.07;;;;;;;5.50;100.00;162003.81;5031797;28;20380;-56
2023/12/23 00:49:30;;;;;;;6.50;2.35;;;;;;;5.53;100.00;162011.94;5043308;28;20041;-56
2023/12/23 00:51:55;;;;;;;13.80;4.10;;;;;;;5.55;100.00;162017.28;5051324;28;20021;-56
2023/12/23 00:54:23;;;;;;;15.52;3.47;;;;;;;5.56;100.00;162019.97;5050067;28;20037;-56
2023/12/23 00:56:48;;;;;;;24.40;4.93;;;;;;;5.56;100.00;162021.34;5051402;28;20696;-57
2023/12/23 00:59:13;;;;;;;9.10;4.43;;;;;;;5.51;100.00;162006.53;5048042;28;20052;-56
2023/12/23 01:01:42;;;;;;;28.25;4.65;;;;;;;5.55;100.00;162017.28;5043563;28;20033;-56
2023/12/23 01:04:07;;;;;;;18.38;3.80;;;;;;;5.50;100.00;162003.81;5030025;28;20033;-56
2023/12/23 01:06:32;;;;;;;16.05;4.65;;;;;;;5.51;100.00;162006.53;5031034;28;20028;-56
2023/12/23 01:08:58;;;;;;;12.07;5.05;;;;;;;5.51;100.00;162006.53;5030046;28;20496;-56
2023/12/23 01:11:23;;;;;;;19.90;5.10;;;;;;;5.48;100.00;161999.81;5031043;28;20017;-56
2023/12/23 01:13:48;;;;;;;20.13;4.22;;;;;;;5.49;100.00;162002.50;5029483;28;20021;-56
2023/12/23 01:16:14;;;;;;;9.02;3.53;;;;;;;5.48;100.00;161998.44;5031116;28;20528;-56
2023/12/23 01:18:39;;;;;;;13.27;3.85;;;;;;;5.48;100.00;161998.44;5030718;28;20033;-56
2023/12/23 01:21:04;;;;;;;11.70;4.10;;;;;;;5.51;100.00;162006.53;5029610;28;20053;-56
2023/12/23 01:23:30;;;;;;;19.27;4.25;;;;;;;5.53;100.00;162011.94;5030905;28;20548;-57
2023/12/23 01:25:55;;;;;;;8.70;3.13;;;;;;;5.53;100.00;162013.25;5029841;28;20042;-56
2023/12/23 01:28:20;;;;;;;8.93;3.25;;;;;;;5.52;100.00;162009.22;5030436;28;20550;-56
2023/12/23 01:30:46;;;;;;;10.73;3.72;;;;;;;5.52;100.00;162009.22;5029502;28;20048;-56
2023/12/23 01:33:11;;;;;;;4.75;2.85;;;;;;;5.52;100.00;162010.56;5050751;28;20028;-56
2023/12/23 01:35:39;;;;;;;7.78;4.18;;;;;;;5.51;100.00;162006.53;5048748;28;20505;-56
2023/12/23 01:38:04;;;;;;;9.15;4.05;;;;;;;5.53;100.00;162011.94;5050808;28;20048;-56
2023/12/23 01:40:30;;;;;;;13.77;4.68;;;;;;;5.59;100.00;162026.69;5037446;28;20053;-56
2023/12/23 01:42:55;;;;;;;9.95;3.33;;;;;;;5.65;100.00;162044.19;5030539;28;20022;-56
2023/12/23 01:45:20;;;;;;;9.52;3.05;;;;;;;5.60;100.00;162029.38;5029125;28;20053;-56
2023/12/23 01:47:48;;;;;;;8.02;2.65;;;;;;;5.61;100.00;162033.47;5030971;28;20432;-56
2023/12/23 01:50:14;;;;;;;9.48;4.15;;;;;;;5.66;100.00;162046.91;5028786;28;20041;-56
2023/12/23 01:52:41;;;;;;;10.40;3.50;;;;;;;5.68;100.00;162052.28;5030193;28;20033;-56
2023/12/23 01:55:08;;;;;;;12.18;3.78;;;;;;;5.64;100.00;162041.50;5029329;28;20103;-56
2023/12/23 01:57:33;;;;;;;2.90;1.90;;;;;;;5.67;100.00;162049.59;5030433;28;20025;-56
2023/12/23 01:59:59;;;;;;;7.13;2.58;;;;;;;5.65;100.00;162044.19;5029238;28;20489;-56
2023/12/23 02:02:27;;;;;;;6.38;3.50;;;;;;;5.69;100.00;162055.00;5030680;28;20029;-56
2023/12/23 02:04:52;;;;;;;3.90;2.15;;;;;;;5.65;100.00;162044.19;5029143;28;20038;-56
2023/12/23 02:07:17;;;;;;;8.77;3.60;;;;;;;5.63;100.00;162038.81;5041161;28;20044;-56
2023/12/23 02:09:43;;;;;;;5.13;3.50;;;;;;;5.63;100.00;162038.81;5030520;28;20052;-56
2023/12/23 02:12:24;;;;;;;7.95;2.25;;;;;;;5.63;100.00;162037.47;5030448;28;20106;-56
2023/12/23 02:15:09;;;;;;;4.35;1.70;;;;;;;5.59;100.00;162026.69;5028919;28;20492;-56
2023/12/23 02:17:37;;;;;;;10.38;4.25;;;;;;;5.58;100.00;162025.38;5030890;28;20144;-56
2023/12/23 02:20:02;;;;;;;7.43;2.67;;;;;;;5.53;100.00;162013.25;5028699;28;20034;-56
2023/12/23 02:22:28;;;;;;;3.22;2.13;;;;;;;5.51;100.00;162006.53;5043889;28;20029;-56
2023/12/23 02:24:53;;;;;;;4.82;2.08;;;;;;;5.46;100.00;161993.09;5049069;28;20407;-56
2023/12/23 02:27:27;;;;;;;6.90;2.50;;;;;;;5.50;100.00;162005.19;5050125;28;20071;-56
2023/12/23 02:29:53;;;;;;;5.32;2.38;;;;;;;5.48;100.00;161998.44;5049006;28;20224;-56
2023/12/23 02:32:19;;;;;;;16.60;3.28;;;;;;;5.47;100.00;161995.78;5050389;28;20559;-56
2023/12/23 02:34:45;;;;;;;2.33;2.00;;;;;;;5.43;100.00;161985.00;5048529;28;20041;-56
2023/12/23 02:37:11;;;;;;;13.75;2.85;;;;;;;5.38;100.00;161974.25;5050119;28;20430;-56
2023/12/23 02:39:36;;;;;;;5.65;2.75;;;;;;;5.37;100.00;161970.19;5046868;28;20040;-56
2023/12/23 02:42:01;;;;;;;4.97;2.33;;;;;;;5.40;100.00;161979.59;5049901;28;20032;-56
2023/12/23 02:44:27;;;;;;;5.28;2.63;;;;;;;5.42;100.00;161983.69;5048484;28;20036;-56
2023/12/23 02:46:52;;;;;;;5.80;1.95;;;;;;;5.42;100.00;161982.31;5050269;28;20032;-56
2023/12/23 02:49:17;;;;;;;3.20;2.75;;;;;;;5.40;100.00;161978.28;5048504;28;20037;-56
2023/12/23 02:51:43;;;;;;;5.40;2.40;;;;;;;5.44;100.00;161989.03;5038669;28;20026;-56
2023/12/23 02:54:08;;;;;;;3.30;2.42;;;;;;;5.35;100.00;161964.84;5028851;28;20527;-56
2023/12/23 02:56:33;;;;;;;10.27;2.33;;;;;;;5.35;100.00;161966.16;5029698;28;20021;-57
2023/12/23 02:58:59;;;;;;;3.63;2.72;;;;;;;5.36;100.00;161968.88;5028788;28;20033;-56
2023/12/23 03:01:24;;;;;;;5.47;3.17;;;;;;;5.32;100.00;161958.13;5030318;28;20021;-56
2023/12/23 03:03:49;;;;;;;7.75;2.65;;;;;;;5.31;100.00;161955.44;5032110;28;20384;-56
2023/12/23 03:06:15;;;;;;;9.40;3.33;;;;;;;5.30;100.00;161952.72;5041406;28;20480;-56
2023/12/23 03:08:41;;;;;;;3.90;1.75;;;;;;;5.29;100.00;161950.03;5053511;28;20027;-56
2023/12/23 03:11:07;;;;;;;22.50;2.22;;;;;;;5.23;100.00;161935.22;5051322;28;20092;-56
2023/12/23 03:13:32;;;;;;;43.78;5.95;;;;;;;5.20;100.00;161927.19;5052947;28;20608;-55
2023/12/23 03:15:58;;;;;;;12.85;3.95;;;;;;;5.21;100.00;161928.50;5051999;28;20052;-56
2023/12/23 03:18:23;;;;;;;13.45;3.67;;;;;;;5.22;100.00;161931.19;5051109;28;20052;-56
2023/12/23 03:20:50;;;;;;;6.47;2.97;;;;;;;5.25;100.00;161939.25;5051968;28;20056;-56
2023/12/23 03:23:15;;;;;;;9.98;4.35;;;;;;;5.28;100.00;161947.34;5053535;28;20098;-56
2023/12/23 03:25:41;;;;;;;4.18;3.78;;;;;;;5.28;100.00;161947.34;5051137;28;20037;-56
2023/12/23 03:28:06;;;;;;;6.35;2.72;;;;;;;5.31;100.00;161954.06;5053372;28;20025;-56
2023/12/23 03:30:32;;;;;;;13.88;5.07;;;;;;;5.27;100.00;161944.66;5051493;28;20059;-56
2023/12/23 03:32:57;;;;;;;13.15;5.20;;;;;;;5.30;100.00;161952.72;5033077;28;20030;-56
2023/12/23 03:35:23;;;;;;;12.90;5.35;;;;;;;5.30;100.00;161952.72;5031363;28;20053;-56
2023/12/23 03:37:48;;;;;;;9.60;4.35;;;;;;;5.28;100.00;161947.34;5033172;28;20038;-56
2023/12/23 03:40:14;;;;;;;13.65;3.55;;;;;;;5.33;100.00;161960.78;5031557;28;20489;-56
2023/12/23 03:42:40;;;;;;;10.68;2.50;;;;;;;5.36;100.00;161968.88;5032607;28;20025;-56
2023/12/23 03:45:06;;;;;;;11.25;3.65;;;;;;;5.38;100.00;161974.25;5031539;28;20471;-56
2023/12/23 03:47:32;;;;;;;19.35;5.05;;;;;;;5.40;100.00;161979.59;5033965;28;20116;-56
2023/12/23 03:49:58;;;;;;;11.13;4.35;;;;;;;5.39;100.00;161976.97;5031138;28;20504;-56
2023/12/23 03:52:23;;;;;;;20.88;7.03;;;;;;;5.47;100.00;161995.78;5032700;28;20084;-56
2023/12/23 03:54:48;;;;;;;24.48;5.10;;;;;;;5.48;100.00;161998.44;5031200;28;20038;-56
2023/12/23 03:57:14;;;;;;;20.20;6.22;;;;;;;5.45;100.00;161991.72;5032462;28;20079;-56
2023/12/23 03:59:39;;;;;;;15.43;5.00;;;;;;;5.38;100.00;161974.25;5031133;28;20041;-56
2023/12/23 04:02:05;;;;;;;19.70;4.45;;;;;;;5.39;100.00;161662.06;5032795;28;20026;-56
2023/12/23 04:04:32;;;;;;;14.80;4.13;;;;;;;5.40;100.00;156548.97;5030690;28;20046;-56
2023/12/23 04:06:57;;;;;;;18.75;5.45;;;;;;;5.50;100.00;148356.94;5032679;28;20029;-56
2023/12/23 04:09:23;;;;;;;17.58;5.05;;;;;;;5.48;100.00;143115.47;5030810;28;20037;-56
2023/12/23 04:11:48;;;;;;;15.65;4.18;;;;;;;5.52;100.00;137892.25;5032198;28;20481;-56
2023/12/23 04:14:13;;;;;;;14.32;4.68;;;;;;;5.59;100.00;132333.44;5030879;28;20072;-56
2023/12/23 04:16:39;;;;;;;32.28;7.18;;;;;;;5.58;100.00;127460.66;5040780;28;20075;-57
2023/12/23 04:19:04;;;;;;;6.55;4.00;;;;;;;5.65;100.00;123304.63;5050664;28;20048;-56
2023/12/23 04:21:30;;;;;;;20.15;5.00;;;;;;;5.68;100.00;119492.03;5051963;28;20044;-56
2023/12/23 04:23:55;;;;;;;15.00;4.68;;;;;;;5.72;100.00;114990.00;5050432;28;20028;-56
2023/12/23 04:26:21;;;;;;;7.53;4.50;;;;;;;5.80;100.00;110845.13;5031930;28;20021;-57
2023/12/23 04:28:47;;;;;;;7.80;4.60;;;;;;;5.89;100.00;106705.13;5030653;28;20044;-56
2023/12/23 04:31:12;;;;;;;9.43;5.53;;;;;;;5.97;100.00;102912.28;5032041;28;20100;-56
2023/12/23 04:33:38;;;;;;;14.95;4.95;;;;;;;6.02;100.00;99118.91;5031599;28;20100;-56
2023/12/23 04:36:03;;;;;;;9.43;6.05;;;;;;;6.14;100.00;95336.88;5030666;28;20045;-56
2023/12/23 04:38:29;;;;;;;9.13;5.03;;;;;;;6.26;100.00;91903.50;5031418;28;20083;-56
2023/12/23 04:40:54;;;;;;;12.25;5.15;;;;;;;6.33;100.00;88809.34;5043817;28;20048;-56
2023/12/23 04:43:20;;;;;;;12.73;5.90;;;;;;;6.45;100.00;85722.38;5051486;28;20028;-56
2023/12/23 04:45:45;;;;;;;12.80;7.28;;;;;;;6.55;100.00;82979.78;5048837;28;20466;-57
2023/12/23 04:48:12;;;;;;;19.42;7.00;;;;;;;6.64;100.00;80581.09;5031584;28;20030;-56
2023/12/23 04:50:37;;;;;;;9.05;5.80;;;;;;;6.69;100.00;78520.94;5029806;28;20041;-56
2023/12/23 04:53:03;;;;;;;14.93;7.70;;;;;;;6.77;100.00;76810.53;5031513;28;20024;-57
2023/12/23 04:55:28;;;;;;;12.77;4.95;;;;;;;6.85;100.00;75444.38;5029490;28;20045;-56
2023/12/23 04:57:53;;;;;;;10.32;6.43;;;;;;;6.92;100.00;74420.41;5031990;28;20029;-56
2023/12/23 05:00:19;;;;;;;14.05;6.22;;;;;;;6.98;100.00;73395.91;5029929;28;20459;-57
2023/12/23 05:02:44;;;;;;;10.85;5.25;;;;;;;7.03;100.00;72370.28;5031490;28;20029;-56
2023/12/23 05:05:10;;;;;;;14.25;6.97;;;;;;;7.06;100.00;71686.19;5029967;28;20704;-57
2023/12/23 05:07:35;;;;;;;25.83;9.50;;;;;;;7.15;100.00;71008.44;5031165;28;20029;-56
2023/12/23 05:10:00;;;;;;;19.15;6.72;;;;;;;7.18;100.00;70324.41;5029699;28;20102;-56
2023/12/23 05:12:26;;;;;;;9.27;5.35;;;;;;;7.25;100.00;69644.31;5031253;28;20043;-56
2023/12/23 05:14:51;;;;;;;17.25;8.30;;;;;;;7.28;100.00;69647.69;5029885;28;20095;-56
2023/12/23 05:17:17;;;;;;;13.30;5.88;;;;;;;7.29;100.00;69305.13;5048367;28;20029;-56
2023/12/23 05:19:43;;;;;;;9.55;5.18;;;;;;;7.33;100.00;69309.56;5049289;28;20041;-57
2023/12/23 05:22:08;;;;;;;13.13;6.38;;;;;;;7.36;100.00;69312.34;5038416;28;20032;-57
2023/12/23 05:24:36;;;;;;;13.07;4.60;;;;;;;7.41;100.00;69661.69;5028722;28;20038;-56
2023/12/23 05:27:01;;;;;;;20.88;5.70;;;;;;;7.41;100.00;70006.03;5031538;28;20421;-56
2023/12/23 05:29:27;;;;;;;14.68;3.58;;;;;;;7.42;100.00;70350.41;5029297;28;20068;-57
2023/12/23 05:31:52;;;;;;;11.80;6.32;;;;;;;7.45;100.00;70697.69;5030747;28;20280;-56
2023/12/23 05:34:17;;;;;;;9.98;3.72;;;;;;;7.50;100.00;71047.31;5029556;28;20048;-56
2023/12/23 05:36:44;;;;;;;10.50;4.78;;;;;;;7.52;100.00;72081.59;5030652;28;20041;-56
2023/12/23 05:39:10;;;;;;;15.80;6.47;;;;;;;7.56;100.00;72773.84;5029401;28;20068;-57
2023/12/23 05:41:35;;;;;;;17.70;5.50;;;;;;;7.57;100.00;73808.13;5030646;28;20476;-56
2023/12/23 05:44:01;;;;;;;11.88;6.03;;;;;;;7.61;100.00;74845.16;5029823;28;20029;-56
2023/12/23 05:46:26;;;;;;;18.35;5.55;;;;;;;7.59;100.00;76220.88;5030655;28;20044;-57
2023/12/23 05:48:51;;;;;;;18.77;5.38;;;;;;;7.58;100.00;77597.63;5029394;28;20028;-56
2023/12/23 05:51:17;;;;;;;20.05;5.60;;;;;;;7.60;100.00;78978.00;5035763;28;20017;-56
2023/12/23 05:53:42;;;;;;;7.07;3.97;;;;;;;7.63;100.00;80361.50;5050098;28;20438;-57
2023/12/23 05:56:08;;;;;;;13.80;4.28;;;;;;;7.60;100.00;81736.41;5049309;28;20041;-57
2023/12/23 05:58:33;;;;;;;15.40;4.40;;;;;;;7.61;100.00;82773.31;5050397;28;20083;-56
2023/12/23 06:00:59;;;;;;;10.02;4.68;;;;;;;7.65;100.00;84157.69;5048832;28;20040;-57
2023/12/23 06:03:25;;;;;;;15.73;6.70;;;;;;;7.66;100.00;85539.91;5050234;28;20028;-56
2023/12/23 06:05:50;;;;;;;21.05;4.82;;;;;;;7.69;100.00;86925.50;5048791;28;20045;-56
2023/12/23 06:08:15;;;;;;;18.88;5.18;;;;;;;7.68;100.00;88306.66;5050522;28;20028;-57
2023/12/23 06:10:41;;;;;;;8.38;4.38;;;;;;;7.71;100.00;90039.06;5029923;28;20050;-56
2023/12/23 06:13:06;;;;;;;20.33;5.30;;;;;;;7.70;100.00;91074.78;5030881;28;20556;-57
2023/12/23 06:15:32;;;;;;;12.75;4.68;;;;;;;7.70;100.00;92112.25;5028826;28;20046;-56
2023/12/23 06:17:57;;;;;;;13.75;3.78;;;;;;;7.69;100.00;92801.78;5030152;28;20052;-57
2023/12/23 06:20:22;;;;;;;9.45;5.05;;;;;;;7.65;100.00;92796.50;5028778;28;20050;-57
2023/12/23 06:22:48;;;;;;;19.70;5.93;;;;;;;7.69;100.00;92455.88;5047988;28;20025;-56
2023/12/23 06:25:13;;;;;;;9.73;3.90;;;;;;;7.72;100.00;92807.06;5048536;28;20041;-56
2023/12/23 06:27:39;;;;;;;10.73;4.70;;;;;;;7.75;100.00;93502.78;5050582;28;20055;-56
2023/12/23 06:30:04;;;;;;;17.17;4.40;;;;;;;7.78;100.00;94545.59;5048636;28;20049;-56
2023/12/23 06:32:30;;;;;;;13.65;4.63;;;;;;;7.78;100.00;95584.06;5050224;28;20025;-56
2023/12/23 06:34:55;;;;;;;13.38;6.10;;;;;;;7.80;100.00;96972.25;5048696;28;20045;-56
2023/12/23 06:37:20;;;;;;;11.57;5.43;;;;;;;7.82;100.00;97668.19;5051848;28;20049;-57
2023/12/23 06:39:46;;;;;;;9.90;4.53;;;;;;;7.80;100.00;98357.84;5051267;28;20079;-57
2023/12/23 06:42:11;;;;;;;11.55;4.57;;;;;;;7.78;100.00;98355.44;5054432;28;20024;-57
2023/12/23 06:44:36;;;;;;;11.95;4.95;;;;;;;7.76;100.00;98351.44;5052331;28;20107;-56
2023/12/23 06:47:02;;;;;;;12.15;3.47;;;;;;;7.78;100.00;97661.84;5053779;28;20052;-56
2023/12/23 06:49:28;;;;;;;31.08;5.57;;;;;;;7.82;100.00;97321.78;5051261;28;20043;-57
2023/12/23 06:51:54;;;;;;;14.82;5.70;;;;;;;7.83;100.00;97323.38;5041834;28;20032;-56
2023/12/23 06:54:19;;;;;;;16.00;4.95;;;;;;;7.83;100.00;97323.38;5031982;28;20396;-56
2023/12/23 06:56:44;;;;;;;11.13;4.60;;;;;;;7.84;100.00;97324.97;5033918;28;20033;-56
2023/12/23 06:59:12;;;;;;;14.70;4.60;;;;;;;7.82;100.00;98013.81;5032624;28;20512;-57
2023/12/23 07:01:39;;;;;;;9.00;2.85;;;;;;;7.86;100.00;98367.44;5049312;28;20041;-57
2023/12/23 07:04:06;;;;;;;14.45;4.15;;;;;;;7.87;100.00;98715.56;5052139;28;20029;-56
2023/12/23 07:06:32;;;;;;;14.82;5.63;;;;;;;7.89;100.00;98718.00;5053414;28;20499;-57
2023/12/23 07:08:57;;;;;;;14.15;4.53;;;;;;;7.89;100.00;98718.78;5051985;28;20017;-56
2023/12/23 07:11:23;;;;;;;18.33;5.85;;;;;;;7.89;100.00;98718.78;5053424;28;20661;-57
2023/12/23 07:13:50;;;;;;;8.73;4.18;;;;;;;7.91;100.00;98722.00;5052031;28;20021;-56
2023/12/23 07:16:16;;;;;;;15.32;4.90;;;;;;;7.88;100.00;98717.19;5052929;28;20075;-57
2023/12/23 07:18:41;;;;;;;17.80;5.70;;;;;;;7.86;100.00;98020.97;5053025;28;20029;-56
2023/12/23 07:21:07;;;;;;;7.18;3.15;;;;;;;7.85;100.00;96980.19;5049616;28;20091;-57
2023/12/23 07:23:32;;;;;;;19.92;4.45;;;;;;;7.89;100.00;96293.75;5053021;28;20086;-57
2023/12/23 07:25:58;;;;;;;15.85;4.72;;;;;;;7.86;100.00;95942.75;5051760;28;20126;-57
2023/12/23 07:28:23;;;;;;;8.60;4.10;;;;;;;7.87;100.00;95251.81;5052937;28;20025;-57
2023/12/23 07:30:48;;;;;;;16.77;4.47;;;;;;;7.92;100.00;95258.78;5051036;28;20045;-57
2023/12/23 07:33:14;;;;;;;12.68;4.30;;;;;;;7.92;100.00;95605.84;5053287;28;20586;-57
2023/12/23 07:35:39;;;;;;;10.85;3.95;;;;;;;7.92;100.00;95605.84;5051187;28;20041;-57
2023/12/23 07:38:05;;;;;;;15.13;3.97;;;;;;;7.92;100.00;95952.16;5052233;28;20135;-57
2023/12/23 07:40:31;;;;;;;14.35;5.05;;;;;;;7.94;100.00;95955.25;5051181;28;20052;-57
2023/12/23 07:42:56;;;;;;;21.55;7.82;;;;;;;7.94;100.00;95608.94;5052998;28;20029;-56
2023/12/23 07:45:23;;;;;;;12.80;5.28;;;;;;;7.98;100.00;95613.63;5050580;28;20028;-57
2023/12/23 07:47:49;;;;;;;14.93;6.53;;;;;;;7.99;100.00;95961.50;5052759;28;20116;-57
2023/12/23 07:50:14;;;;;;;7.07;4.53;;;;;;;7.99;100.00;95961.50;5051214;28;20120;-57
2023/12/23 07:52:40;;;;;;;8.68;3.92;;;;;;;7.98;100.00;95959.94;5051397;28;20024;-57
2023/12/23 07:55:06;;;;;;;13.90;3.72;;;;;;;7.98;100.00;95267.31;5051160;28;20041;-57
2023/12/23 07:57:31;;;;;;;16.70;5.57;;;;;;;8.01;100.00;94925.66;5052540;28;20032;-57
2023/12/23 07:59:57;;;;;;;17.15;5.35;;;;;;;8.00;100.00;94924.13;5050644;28;20053;-57
2023/12/23 08:02:22;;;;;;;25.08;7.10;;;;;;;7.98;100.00;94575.56;5052230;28;20033;-57
2023/12/23 08:04:48;;;;;;;12.18;5.13;;;;;;;7.99;100.00;93883.94;5051268;28;20443;-56
2023/12/23 08:07:13;;;;;;;12.98;6.50;;;;;;;7.99;100.00;93192.38;5051799;28;20036;-57
2023/12/23 08:09:39;;;;;;;13.73;5.57;;;;;;;7.99;100.00;92845.53;5050993;28;20056;-57
2023/12/23 08:12:05;;;;;;;17.75;5.80;;;;;;;7.99;100.00;92500.22;5052490;28;20024;-56
2023/12/23 08:14:30;;;;;;;26.35;8.68;;;;;;;8.01;100.00;92502.47;5050192;28;20099;-57
2023/12/23 08:16:56;;;;;;;15.40;4.97;;;;;;;8.06;100.00;92856.09;5052318;28;20024;-57
2023/12/23 08:19:21;;;;;;;16.48;5.40;;;;;;;8.04;100.00;93546.13;5050492;28;20118;-60
2023/12/23 08:21:46;;;;;;;26.60;7.13;;;;;;;8.06;100.00;94240.84;5039443;28;20470;-57
2023/12/23 08:24:13;;;;;;;20.80;6.45;;;;;;;8.07;100.00;94934.94;5031149;28;20044;-57
2023/12/23 08:26:38;;;;;;;24.60;6.95;;;;;;;8.08;100.00;95976.34;5031910;28;20029;-57
2023/12/23 08:29:04;;;;;;;29.67;10.25;;;;;;;8.05;100.00;97010.16;5030631;28;20041;-58
2023/12/23 08:31:29;;;;;;;20.15;7.30;;;;;;;8.09;100.00;98056.09;5031799;28;20030;-58
2023/12/23 08:33:55;;;;;;;23.35;6.38;;;;;;;8.11;100.00;99099.25;5030824;28;20021;-57
2023/12/23 08:36:20;;;;;;;15.75;5.88;;;;;;;8.10;100.00;100484.59;5032531;28;20014;-57
2023/12/23 08:38:45;;;;;;;17.42;6.25;;;;;;;8.07;100.00;101520.19;5035515;28;20032;-57
2023/12/23 08:41:11;;;;;;;19.20;6.43;;;;;;;8.10;100.00;102912.94;5052122;28;20013;-57
2023/12/23 08:43:36;;;;;;;14.60;5.55;;;;;;;8.11;100.00;104997.25;5051593;28;20032;-57
2023/12/23 08:46:01;;;;;;;15.65;5.70;;;;;;;8.19;100.00;107441.50;5049881;28;20041;-57
2023/12/23 08:48:28;;;;;;;29.55;8.05;;;;;;;8.23;100.00;110576.91;5051501;28;20523;-57
2023/12/23 08:50:53;;;;;;;18.83;5.00;;;;;;;8.20;100.00;113355.13;5042784;28;20042;-57
2023/12/23 08:53:19;;;;;;;12.00;5.70;;;;;;;8.22;100.00;115099.06;5031084;28;20029;-57
2023/12/23 08:55:44;;;;;;;15.50;4.88;;;;;;;8.20;100.00;116836.19;5030086;28;20037;-57
2023/12/23 08:58:14;;;;;;;18.13;5.38;;;;;;;8.19;100.00;117529.88;5031987;28;20075;-58
2023/12/23 09:00:39;;;;;;;12.95;4.40;;;;;;;8.20;100.00;118228.44;5028655;28;20055;-58
2023/12/23 09:03:05;;;;;;;19.15;6.05;;;;;;;8.21;100.00;118927.22;5031526;28;20026;-57
2023/12/23 09:05:30;;;;;;;13.13;4.90;;;;;;;8.20;100.00;119274.69;5029800;28;20508;-57
2023/12/23 09:07:55;;;;;;;15.43;4.93;;;;;;;8.18;100.00;118573.94;5031169;28;20068;-57
2023/12/23 09:10:21;;;;;;;16.10;6.05;;;;;;;8.17;100.00;118919.44;5029646;28;20428;-57
2023/12/23 09:12:46;;;;;;;16.92;5.68;;;;;;;8.19;100.00;119969.72;5031617;28;20057;-57
2023/12/23 09:15:12;;;;;;;21.23;6.93;;;;;;;8.21;100.00;120669.75;5029366;28;20072;-57
2023/12/23 09:17:37;;;;;;;17.70;4.90;;;;;;;8.19;100.00;121711.69;5031487;28;20083;-57
2023/12/23 09:20:06;;;;;;;25.08;6.80;;;;;;;8.21;100.00;123110.56;5029747;28;20496;-57
2023/12/23 09:22:31;;;;;;;38.13;10.15;;;;;;;8.19;100.00;123456.34;5010783;28;20025;-57
2023/12/23 09:24:57;;;;;;;17.75;7.05;;;;;;;8.23;100.00;124510.09;5010116;28;20045;-57
2023/12/23 09:27:22;;;;;;;25.55;4.55;;;;;;;8.23;100.00;126255.06;5011396;28;20359;-57
2023/12/23 09:29:48;;;;;;;11.55;5.72;;;;;;;8.22;100.00;127999.75;5032810;28;20052;-57
2023/12/23 09:32:13;;;;;;;21.80;4.57;;;;;;;8.23;100.00;128700.34;5051316;28;20025;-57
2023/12/23 09:34:38;;;;;;;19.35;4.30;;;;;;;8.22;100.00;129746.22;5049202;28;20051;-57
2023/12/23 09:37:04;;;;;;;12.15;4.88;;;;;;;8.24;100.00;130449.25;5050333;28;20052;-57
2023/12/23 09:39:29;;;;;;;17.30;4.00;;;;;;;8.24;100.00;132196.81;5049068;28;20486;-58
2023/12/23 09:41:55;;;;;;;17.15;5.03;;;;;;;8.25;100.00;133597.59;5049031;28;20082;-57
2023/12/23 09:44:21;;;;;;;30.02;8.77;;;;;;;8.22;100.00;133940.72;5048544;28;20057;-57
2023/12/23 09:46:47;;;;;;;14.15;4.63;;;;;;;8.22;100.00;134640.22;5050928;28;20021;-57
2023/12/23 09:49:12;;;;;;;21.52;3.97;;;;;;;8.20;100.00;133586.63;5049482;28;20041;-58
2023/12/23 09:51:37;;;;;;;16.08;4.15;;;;;;;8.17;100.00;131132.03;5034427;28;20029;-57
2023/12/23 09:54:07;;;;;;;9.05;5.13;;;;;;;8.16;100.00;128684.50;5029324;28;20048;-57
2023/12/23 09:56:34;;;;;;;14.63;5.10;;;;;;;8.14;100.00;126935.56;5030923;28;20025;-57
2023/12/23 09:59:00;;;;;;;20.27;4.50;;;;;;;8.15;100.00;125192.59;5028771;28;20022;-57
2023/12/23 10:01:25;;;;;;;21.95;5.50;;;;;;;8.18;100.00;124848.78;5030653;28;20376;-57
2023/12/23 10:03:51;;;;;;;18.95;5.20;;;;;;;8.13;100.00;123793.00;5029096;28;20603;-58
2023/12/23 10:06:16;;;;;;;17.42;4.30;;;;;;;8.17;100.00;123103.50;5030848;28;20112;-57
2023/12/23 10:08:45;;;;;;;14.38;7.20;;;;;;;8.17;100.00;123800.09;5029429;28;20029;-53
2023/12/23 10:11:11;;;;;;;20.27;6.90;;;;;;;8.17;100.00;123452.28;5032202;28;20026;-57
2023/12/23 10:13:36;;;;;;;23.73;5.40;;;;;;;8.18;100.00;123803.16;5047851;28;20039;-57
2023/12/23 10:16:03;;;;;;;15.07;5.05;;;;;;;8.16;100.00;124147.91;5053063;28;20056;-57
2023/12/23 10:18:28;;;;;;;13.85;5.95;;;;;;;8.18;100.00;123454.31;5054251;28;20107;-57
2023/12/23 10:20:53;;;;;;;21.73;5.88;;;;;;;8.17;100.00;122754.75;5042016;28;20132;-57
2023/12/23 10:23:19;;;;;;;11.73;5.30;;;;;;;8.15;100.00;121704.69;5033998;28;20018;-57
2023/12/23 10:25:45;;;;;;;17.75;4.15;;;;;;;8.17;100.00;121010.44;5032865;28;20042;-57
2023/12/23 10:28:11;;;;;;;14.18;4.05;;;;;;;8.16;100.00;120312.31;5034089;28;20192;-58
2023/12/23 10:30:46;;;;;;;15.10;5.32;;;;;;;8.20;100.00;119971.69;5032858;28;20075;-58
2023/12/23 10:33:14;;;;;;;12.15;4.18;;;;;;;8.20;100.00;120668.78;5034655;28;20562;-58
2023/12/23 10:35:46;;;;;;;;;;;;;;;8.21;100.00;121715.66;5032752;28;20519;-57
2023/12/23 10:38:16;;;;;;;22.25;6.00;;;;;;;8.24;100.00;122070.34;5048596;28;19923;-57
2023/12/23 10:40:45;;;;;;;10.18;4.25;;;;;;;8.28;100.00;123821.44;5052157;28;20048;-57
2023/12/23 10:43:11;;;;;;;;;;;;;;;8.23;100.00;125209.00;5044020;28;20029;-57
2023/12/23 10:45:37;;;;;;;13.90;4.80;;;;;;;8.19;100.00;125897.75;5032449;28;19924;-57
2023/12/23 10:48:04;;;;;;;18.77;5.90;;;;;;;8.20;100.00;125202.84;5034425;28;20025;-57
2023/12/23 10:50:31;;;;;;;15.82;4.30;;;;;;;8.18;100.00;124500.88;5032069;28;20044;-57
2023/12/23 10:52:58;;;;;;;12.73;5.10;;;;;;;8.17;100.00;123103.50;5033851;28;20091;-57
2023/12/23 10:55:24;;;;;;;20.17;6.07;;;;;;;8.17;100.00;121708.66;5032007;28;20046;-57
2023/12/23 10:57:51;;;;;;;17.55;6.40;;;;;;;8.16;100.00;121008.44;5033891;28;20025;-58
2023/12/23 11:00:17;;;;;;;11.32;3.40;;;;;;;8.16;100.00;120312.31;5032243;28;20049;-57
2023/12/23 11:02:45;;;;;;;22.30;6.57;;;;;;;8.17;100.00;120313.31;5033860;28;20495;-58
2023/12/23 11:05:11;;;;;;;18.47;4.60;;;;;;;8.19;100.00;120666.81;5032159;28;20515;-57
2023/12/23 11:07:42;;;;;;;24.30;8.93;;;;;;;8.19;100.00;121015.38;5033582;28;20489;-57
2023/12/23 11:10:09;;;;;;;13.48;5.70;;;;;;;8.19;100.00;121364.00;5032111;28;20045;-58
2023/12/23 11:12:35;;;;;;;19.27;6.32;;;;;;;8.21;100.00;121716.66;5038258;28;20029;-57
2023/12/23 11:15:00;;;;;;;19.85;6.85;;;;;;;8.17;100.00;121011.41;5052022;28;20041;-58